Time;durP1;ratioP1;P1;durP2;ratioP2;P2;SDS_P1;SDS_P2;PMS_P1;PMS_P2;Temp;Humidity;BMP_temperature;BMP_pressure;BME280_temperature;BME280_humidity;BME280_pressure;Samples;Min_cycle;Max_cycle;Signal;HPM_P1;HPM_P2
2023/05/28 00:00:20;;;;;;;1.83;1.67;;;;;;;8.68;100.00;99418.53;5139118;28;20415;-53
2023/05/28 00:02:46;;;;;;;0.82;0.80;;;;;;;8.63;100.00;99403.16;5139342;28;20074;-52
2023/05/28 00:05:12;;;;;;;3.10;1.02;;;;;;;8.56;100.00;99402.94;5138997;28;20072;-57
2023/05/28 00:07:39;;;;;;;3.45;1.00;;;;;;;8.52;100.00;99393.06;5139024;28;20141;-60
2023/05/28 00:10:06;;;;;;;3.83;1.10;;;;;;;8.56;100.00;99396.69;5139194;28;20329;-51
2023/05/28 00:12:32;;;;;;;4.72;1.10;;;;;;;8.44;100.00;99398.31;5139055;28;20380;-59
2023/05/28 00:14:59;;;;;;;1.90;0.85;;;;;;;8.45;100.00;99396.38;5138923;28;20058;-59
2023/05/28 00:17:25;;;;;;;5.60;0.95;;;;;;;8.36;100.00;99399.19;5138707;27;20448;-54
2023/05/28 00:19:51;;;;;;;1.83;0.82;;;;;;;8.30;100.00;99381.47;5137789;28;20088;-52
2023/05/28 00:22:17;;;;;;;1.45;0.80;;;;;;;8.30;100.00;99381.47;5138805;28;20055;-56
2023/05/28 00:24:43;;;;;;;5.22;1.10;;;;;;;8.21;100.00;99380.78;5139056;28;20043;-59
2023/05/28 00:27:10;;;;;;;3.65;1.08;;;;;;;8.23;100.00;99365.66;5138783;28;20133;-58
2023/05/28 00:29:36;;;;;;;1.52;1.00;;;;;;;8.16;100.00;99362.72;5138618;28;20138;-59
2023/05/28 00:32:02;;;;;;;3.60;1.00;;;;;;;8.12;100.00;99353.59;5138919;28;20103;-59
2023/05/28 00:34:28;;;;;;;5.88;1.02;;;;;;;7.95;100.00;99335.53;5138793;28;20070;-52
2023/05/28 00:36:54;;;;;;;3.25;0.93;;;;;;;7.99;100.00;99335.63;5138647;27;20051;-52
2023/05/28 00:39:20;;;;;;;2.20;1.00;;;;;;;7.98;100.00;99345.78;5138656;28;20051;-54
2023/05/28 00:41:46;;;;;;;3.03;1.20;;;;;;;7.95;100.00;99349.19;5138609;27;20078;-52
2023/05/28 00:44:13;;;;;;;2.80;0.90;;;;;;;7.95;100.00;99348.38;5138707;28;20047;-58
2023/05/28 00:46:41;;;;;;;3.80;1.20;;;;;;;7.99;100.00;99344.63;5138529;28;20057;-59
2023/05/28 00:49:09;;;;;;;3.03;0.80;;;;;;;7.77;100.00;99350.56;5138446;28;20051;-52
2023/05/28 00:51:35;;;;;;;3.15;1.00;;;;;;;7.78;100.00;99346.69;5138389;28;20388;-54
2023/05/28 00:54:02;;;;;;;4.82;1.35;;;;;;;7.85;100.00;99346.91;5138246;28;20057;-58
2023/05/28 00:56:28;;;;;;;0.80;0.80;;;;;;;7.85;100.00;99338.72;5138197;28;20061;-51
2023/05/28 00:58:55;;;;;;;2.10;1.00;;;;;;;7.87;100.00;99347.38;5138510;28;20316;-52
2023/05/28 01:01:24;;;;;;;1.67;1.10;;;;;;;7.89;100.00;99347.03;5138377;28;20361;-55
2023/05/28 01:03:51;;;;;;;5.10;1.10;;;;;;;7.87;100.00;99350.13;5138567;28;20078;-57
2023/05/28 01:06:20;;;;;;;2.90;1.10;;;;;;;7.87;100.00;99341.91;5137971;27;20464;-55
2023/05/28 01:08:47;;;;;;;3.00;0.90;;;;;;;7.89;100.00;99336.09;5138232;28;20345;-51
2023/05/28 01:11:16;;;;;;;3.15;0.98;;;;;;;7.84;100.00;99325.44;5138161;28;20141;-52
2023/05/28 01:13:43;;;;;;;2.05;1.10;;;;;;;7.82;100.00;99328.50;5138059;28;20051;-51
2023/05/28 01:16:09;;;;;;;1.30;1.08;;;;;;;7.76;100.00;99305.28;5138080;28;20047;-56
2023/05/28 01:18:39;;;;;;;9.82;1.23;;;;;;;7.67;100.00;99293.72;5137855;28;20059;-56
2023/05/28 01:21:06;;;;;;;0.98;0.88;;;;;;;7.66;100.00;99290.19;5137871;28;20066;-59
2023/05/28 01:23:39;;;;;;;2.88;1.10;;;;;;;7.67;100.00;99288.25;5137701;28;20054;-56
2023/05/28 01:26:05;;;;;;;2.88;1.00;;;;;;;7.65;100.00;99288.59;5138035;28;20047;-59
2023/05/28 01:28:32;;;;;;;6.70;1.08;;;;;;;7.52;100.00;99262.44;5137898;28;20378;-56
2023/05/28 01:30:58;;;;;;;3.78;1.13;;;;;;;7.48;100.00;99256.09;5137521;27;20050;-57
2023/05/28 01:33:24;;;;;;;1.85;1.00;;;;;;;7.45;100.00;99260.28;5137817;28;20047;-53
2023/05/28 01:35:54;;;;;;;3.67;1.13;;;;;;;7.38;100.00;99249.16;5137727;27;20058;-55
2023/05/28 01:38:22;;;;;;;4.63;1.23;;;;;;;7.32;100.00;99243.13;5137628;28;20141;-53
2023/05/28 01:40:50;;;;;;;1.85;1.05;;;;;;;7.34;100.00;99253.72;5137588;28;20073;-56
2023/05/28 01:43:16;;;;;;;1.17;1.00;;;;;;;7.32;100.00;99247.78;5137578;28;20369;-54
2023/05/28 01:45:43;;;;;;;8.30;1.30;;;;;;;7.35;100.00;99251.78;5137561;27;20046;-52
2023/05/28 01:48:10;;;;;;;3.33;0.80;;;;;;;7.27;100.00;99234.41;5137524;28;20146;-56
2023/05/28 01:50:36;;;;;;;2.88;1.20;;;;;;;7.26;100.00;99224.63;5137412;28;20081;-54
2023/05/28 01:53:02;;;;;;;1.55;0.75;;;;;;;7.17;100.00;99210.31;5137639;27;20313;-57
2023/05/28 01:55:28;;;;;;;5.05;1.42;;;;;;;7.23;100.00;99211.66;5137564;28;20469;-56
2023/05/28 01:57:55;;;;;;;1.33;1.05;;;;;;;7.23;100.00;99208.94;5137236;28;20055;-59
2023/05/28 02:00:22;;;;;;;5.72;1.17;;;;;;;7.16;100.00;99203.25;5137265;28;20417;-50
2023/05/28 02:02:48;;;;;;;3.08;1.17;;;;;;;7.18;100.00;99190.09;5137304;28;20043;-58
2023/05/28 02:05:15;;;;;;;9.23;1.08;;;;;;;7.18;100.00;99185.44;5137394;27;20058;-54
2023/05/28 02:07:41;;;;;;;2.95;0.90;;;;;;;7.17;100.00;99162.03;5137257;28;20051;-54
2023/05/28 02:10:08;;;;;;;6.75;1.20;;;;;;;7.17;100.00;99155.78;5137233;28;20130;-54
2023/05/28 02:12:34;;;;;;;1.88;1.00;;;;;;;7.15;100.00;99160.78;5137129;28;20099;-50
2023/05/28 02:15:00;;;;;;;4.43;1.10;;;;;;;7.17;100.00;99162.03;5137040;28;20343;-49
2023/05/28 02:17:27;;;;;;;1.95;1.05;;;;;;;7.20;100.00;99142.25;5137006;28;20084;-51
2023/05/28 02:19:53;;;;;;;1.15;0.88;;;;;;;7.19;100.00;99132.47;5137078;28;20369;-52
2023/05/28 02:22:18;;;;;;;5.50;1.30;;;;;;;7.25;100.00;99138.50;5137203;28;20043;-54
2023/05/28 02:24:46;;;;;;;2.75;0.90;;;;;;;7.29;100.00;99142.13;5137273;28;20257;-52
2023/05/28 02:27:12;;;;;;;3.88;1.10;;;;;;;7.32;100.00;99142.22;5137224;28;20061;-50
2023/05/28 02:29:38;;;;;;;5.13;1.00;;;;;;;7.31;100.00;99148.84;5136962;28;20082;-54
2023/05/28 02:32:05;;;;;;;2.10;0.90;;;;;;;7.40;100.00;99137.00;5137086;28;20142;-58
2023/05/28 02:34:31;;;;;;;2.40;1.40;;;;;;;7.83;100.00;99157.34;5136843;28;20499;-60
2023/05/28 02:37:00;;;;;;;2.72;1.38;;;;;;;8.28;100.00;99199.94;5136727;27;20138;-55
2023/05/28 02:39:26;;;;;;;2.15;1.13;;;;;;;8.75;100.00;99245.72;5137109;28;20047;-58
2023/05/28 02:41:52;;;;;;;4.35;1.40;;;;;;;9.07;100.00;99295.78;5137780;27;20047;-51
2023/05/28 02:44:18;;;;;;;1.52;1.10;;;;;;;9.32;100.00;99326.50;5140399;28;20369;-53
2023/05/28 02:46:43;;;;;;;1.77;1.17;;;;;;;9.58;100.00;99367.81;5140449;28;20100;-56
2023/05/28 02:49:10;;;;;;;2.00;1.52;;;;;;;10.01;100.00;99389.97;5140288;28;20134;-57
2023/05/28 02:51:36;;;;;;;3.05;1.30;;;;;;;10.14;100.00;99419.66;5140233;28;20047;-59
2023/05/28 02:54:02;;;;;;;1.92;1.20;;;;;;;10.30;100.00;99429.81;5140679;28;20078;-59
2023/05/28 02:56:28;;;;;;;5.60;1.08;;;;;;;10.41;100.00;99441.81;5140350;28;20051;-58
2023/05/28 02:58:54;;;;;;;4.05;1.50;;;;;;;10.69;100.00;99458.09;5140318;28;20139;-57
2023/05/28 03:01:20;;;;;;;3.13;1.42;;;;;;;10.93;100.00;99475.44;5140282;28;20051;-58
2023/05/28 03:03:46;;;;;;;5.22;1.20;;;;;;;10.73;100.00;99475.44;5140200;28;20142;-55
2023/05/28 03:06:13;;;;;;;4.38;1.30;;;;;;;11.28;100.00;99489.91;5139973;27;20047;-50
2023/05/28 03:08:39;;;;;;;3.58;1.42;;;;;;;11.60;100.00;99495.25;5139977;28;20499;-60
2023/05/28 03:11:05;;;;;;;6.25;1.20;;;;;;;11.63;100.00;99510.19;5139998;27;20139;-60
2023/05/28 03:13:31;;;;;;;2.28;1.35;;;;;;;12.14;100.00;99523.72;5139826;28;20051;-55
2023/05/28 03:15:58;;;;;;;4.13;1.27;;;;;;;12.26;100.00;99531.75;5139905;28;20138;-56
2023/05/28 03:18:24;;;;;;;1.20;0.98;;;;;;;12.53;100.00;99538.13;5139730;28;20051;-55
2023/05/28 03:20:50;;;;;;;3.83;1.30;;;;;;;12.74;100.00;99553.34;5140058;28;20899;-59
2023/05/28 03:23:17;;;;;;;1.73;0.93;;;;;;;12.82;100.00;99550.31;5139990;28;20047;-53
2023/05/28 03:25:43;;;;;;;5.40;1.10;;;;;;;13.15;98.30;99563.38;5139956;28;20393;-54
2023/05/28 03:28:09;;;;;;;7.15;1.83;;;;;;;13.26;97.17;99565.53;5139718;28;20133;-59
2023/05/28 03:30:35;;;;;;;2.10;1.02;;;;;;;12.84;93.37;99585.75;5139858;28;20094;-59
2023/05/28 03:33:01;;;;;;;3.83;1.13;;;;;;;13.45;95.38;99572.84;5140015;28;20133;-59
2023/05/28 03:35:27;;;;;;;4.53;1.15;;;;;;;13.50;92.39;99572.53;5139599;27;20145;-57
2023/05/28 03:37:53;;;;;;;6.43;1.15;;;;;;;13.72;89.81;99579.88;5139759;28;20387;-55
2023/05/28 03:40:19;;;;;;;1.50;1.15;;;;;;;14.11;88.10;99585.03;5139461;28;20143;-52
2023/05/28 03:42:45;;;;;;;7.00;1.30;;;;;;;14.43;85.82;99595.56;5139477;28;20306;-53
2023/05/28 03:45:11;;;;;;;4.70;1.25;;;;;;;14.27;83.84;99595.84;5139484;28;20100;-54
2023/05/28 03:47:37;;;;;;;3.15;0.90;;;;;;;14.76;80.71;99601.03;5139283;28;20062;-57
2023/05/28 03:50:04;;;;;;;2.70;0.95;;;;;;;15.20;80.65;99593.84;5139858;28;20143;-54
2023/05/28 03:52:30;;;;;;;2.33;1.00;;;;;;;14.99;77.88;99602.75;5139014;27;20072;-55
2023/05/28 03:54:56;;;;;;;2.17;1.08;;;;;;;15.53;77.98;99601.91;5139448;27;20339;-51
2023/05/28 03:57:22;;;;;;;6.75;1.33;;;;;;;15.78;74.26;99606.78;5139537;28;20089;-50
2023/05/28 03:59:49;;;;;;;2.05;1.00;;;;;;;15.90;74.33;99606.44;5139349;28;20047;-56
2023/05/28 04:02:15;;;;;;;4.57;1.60;;;;;;;16.28;71.65;99615.22;5139307;28;20051;-60
2023/05/28 04:04:41;;;;;;;3.80;1.08;;;;;;;16.47;71.91;99609.31;5139225;28;20070;-58
2023/05/28 04:07:07;;;;;;;2.10;0.95;;;;;;;16.61;68.77;99618.81;5139087;27;20055;-55
2023/05/28 04:09:33;;;;;;;2.17;1.20;;;;;;;15.67;67.65;99615.03;5139136;28;20047;-51
2023/05/28 04:11:58;;;;;;;3.70;1.13;;;;;;;16.96;67.65;99622.78;5139028;28;20062;-53
2023/05/28 04:14:25;;;;;;;4.25;1.70;;;;;;;16.87;67.01;99626.75;5139101;28;20097;-55
2023/05/28 04:16:53;;;;;;;4.68;1.10;;;;;;;16.14;66.26;99623.47;5139350;28;20111;-58
2023/05/28 04:19:19;;;;;;;8.90;1.45;;;;;;;16.64;65.78;99629.88;5139151;27;20445;-58
2023/05/28 04:21:45;;;;;;;5.07;1.20;;;;;;;17.09;65.74;99633.09;5139080;28;20137;-58
2023/05/28 04:24:11;;;;;;;4.38;1.58;;;;;;;16.71;63.26;99627.13;5139102;28;20093;-53
2023/05/28 04:26:37;;;;;;;2.35;0.93;;;;;;;17.28;63.64;99634.63;5138915;28;20134;-55
2023/05/28 04:29:03;;;;;;;3.10;0.82;;;;;;;17.51;62.79;99633.41;5138807;28;20084;-57
2023/05/28 04:31:29;;;;;;;3.75;1.27;;;;;;;17.71;61.62;99642.84;5138737;28;20420;-60
2023/05/28 04:33:55;;;;;;;4.20;1.30;;;;;;;18.12;61.47;99636.72;5138639;28;20141;-59
2023/05/28 04:36:29;;;;;;;6.97;1.33;;;;;;;17.62;61.99;99632.16;5138630;27;20054;-60
2023/05/28 04:38:56;;;;;;;3.53;1.15;;;;;;;17.75;60.53;99629.75;5138500;28;20554;-53
2023/05/28 04:41:23;;;;;;;2.72;1.17;;;;;;;18.33;60.00;99631.06;5138449;28;20051;-54
2023/05/28 04:43:49;;;;;;;4.32;1.23;;;;;;;17.91;59.58;99634.06;5138380;28;20072;-57
2023/05/28 04:46:16;;;;;;;2.42;1.17;;;;;;;18.72;59.41;99627.25;5138741;28;20047;-58
2023/05/28 04:48:42;;;;;;;16.35;1.50;;;;;;;18.49;59.53;99633.38;5138603;28;20114;-57
2023/05/28 04:51:08;;;;;;;3.22;1.10;;;;;;;18.60;58.34;99626.94;5138569;28;20073;-55
2023/05/28 04:53:34;;;;;;;6.50;1.88;;;;;;;19.51;57.45;99627.31;5138460;28;20417;-59
2023/05/28 04:56:00;;;;;;;3.65;1.48;;;;;;;19.83;55.49;99617.84;5138571;28;20404;-59
2023/05/28 04:58:26;;;;;;;2.90;1.42;;;;;;;20.03;56.01;99623.53;5138154;28;20051;-54
2023/05/28 05:00:53;;;;;;;8.15;1.80;;;;;;;20.52;54.91;99623.25;5138175;28;20328;-56
2023/05/28 05:03:18;;;;;;;1.27;1.00;;;;;;;20.43;54.38;99627.34;5138237;28;20051;-57
2023/05/28 05:05:45;;;;;;;1.70;0.90;;;;;;;21.01;54.08;99620.88;5137390;27;20450;-51
2023/05/28 05:08:13;;;;;;;4.22;1.33;;;;;;;21.00;53.12;99631.25;5138424;28;20051;-53
2023/05/28 05:10:39;;;;;;;2.05;1.10;;;;;;;21.43;51.93;99630.50;5138058;27;20043;-51
2023/05/28 05:13:05;;;;;;;4.80;1.63;;;;;;;21.32;50.58;99638.25;5137928;28;20051;-58
2023/05/28 05:15:31;;;;;;;4.30;1.42;;;;;;;21.67;50.89;99636.81;5138092;28;20149;-60
2023/05/28 05:17:56;;;;;;;2.00;1.20;;;;;;;21.66;50.79;99631.66;5138107;27;20332;-59
2023/05/28 05:20:23;;;;;;;1.10;0.93;;;;;;;21.95;50.84;99637.44;5138137;28;20422;-58
2023/05/28 05:22:50;;;;;;;2.95;0.90;;;;;;;22.10;50.51;99638.72;5137980;28;20133;-52
2023/05/28 05:25:16;;;;;;;2.33;1.30;;;;;;;22.60;49.08;99642.44;5138078;28;20082;-59
2023/05/28 05:27:41;;;;;;;2.50;1.15;;;;;;;21.96;49.60;99631.44;5137905;28;20062;-55
2023/05/28 05:30:08;;;;;;;4.22;1.60;;;;;;;22.37;49.21;99629.41;5137767;28;20466;-53
2023/05/28 05:32:34;;;;;;;2.00;1.15;;;;;;;22.59;48.26;99638.81;5137968;28;20134;-55
2023/05/28 05:35:00;;;;;;;2.85;1.48;;;;;;;22.87;47.34;99631.00;5137954;28;20074;-60
2023/05/28 05:37:26;;;;;;;3.33;1.48;;;;;;;22.66;47.15;99635.88;5137550;27;20411;-59
2023/05/28 05:39:53;;;;;;;2.33;1.52;;;;;;;22.86;46.76;99632.19;5137478;28;20059;-58
2023/05/28 05:42:19;;;;;;;3.03;1.58;;;;;;;22.99;47.40;99633.91;5137436;28;20062;-60
2023/05/28 05:44:45;;;;;;;3.50;1.40;;;;;;;22.63;47.36;99635.97;5137515;28;20051;-59
2023/05/28 05:47:11;;;;;;;3.92;1.40;;;;;;;22.28;46.21;99635.56;5137657;28;20109;-58
2023/05/28 05:49:38;;;;;;;4.57;1.50;;;;;;;20.72;47.13;99631.72;5137378;28;20408;-57
2023/05/28 05:52:04;;;;;;;4.38;1.30;;;;;;;23.06;46.34;99634.94;5137515;28;20107;-58
2023/05/28 05:54:30;;;;;;;8.00;1.65;;;;;;;23.10;44.76;99641.22;5137364;28;20417;-58
2023/05/28 05:56:57;;;;;;;3.70;0.70;;;;;;;23.69;43.70;99638.06;5137391;28;20086;-59
2023/05/28 05:59:23;;;;;;;4.90;1.10;;;;;;;21.77;45.40;99637.81;5137309;28;20047;-56
2023/05/28 06:01:49;;;;;;;3.40;1.17;;;;;;;22.04;44.84;99644.03;5137342;28;20134;-54
2023/05/28 06:04:15;;;;;;;4.35;1.50;;;;;;;22.96;44.23;99634.00;5137402;28;20043;-51
2023/05/28 06:06:41;;;;;;;3.00;1.15;;;;;;;24.07;43.89;99642.19;5137115;27;20320;-52
2023/05/28 06:09:06;;;;;;;3.17;1.48;;;;;;;23.59;44.53;99627.94;5137128;28;20482;-52
2023/05/28 06:11:32;;;;;;;4.55;1.42;;;;;;;23.71;44.47;99621.59;5137192;27;20043;-55
2023/05/28 06:13:59;;;;;;;6.75;1.30;;;;;;;23.80;43.91;99618.16;5137460;28;20078;-55
2023/05/28 06:16:26;;;;;;;3.15;1.13;;;;;;;24.01;43.83;99624.34;5137644;27;20138;-52
2023/05/28 06:18:52;;;;;;;4.00;1.00;;;;;;;24.08;43.36;99624.91;5141221;28;20055;-59
2023/05/28 06:21:18;;;;;;;2.78;1.40;;;;;;;23.99;43.17;99626.81;5140738;28;20066;-56
2023/05/28 06:23:44;;;;;;;8.18;1.23;;;;;;;23.08;43.40;99624.09;5140929;28;20043;-52
2023/05/28 06:26:10;;;;;;;3.95;1.10;;;;;;;23.99;43.18;99627.59;5140892;28;20365;-55
2023/05/28 06:28:36;;;;;;;4.28;1.10;;;;;;;23.61;42.90;99619.06;5140962;28;20143;-59
2023/05/28 06:31:03;;;;;;;5.38;1.27;;;;;;;22.84;43.69;99626.28;5140589;28;20047;-59
2023/05/28 06:33:28;;;;;;;2.53;1.20;;;;;;;23.07;43.88;99628.91;5140646;28;20051;-53
2023/05/28 06:35:54;;;;;;;5.55;1.30;;;;;;;23.33;43.91;99627.03;5140507;27;20062;-52
2023/05/28 06:38:21;;;;;;;3.00;0.90;;;;;;;23.16;43.90;99623.47;5140364;28;20051;-52
2023/05/28 06:40:46;;;;;;;12.77;1.45;;;;;;;22.98;44.20;99620.34;5140413;28;20078;-60
2023/05/28 06:43:12;;;;;;;3.10;1.40;;;;;;;23.33;44.03;99617.84;5140541;28;20286;-59
2023/05/28 06:45:38;;;;;;;5.75;1.13;;;;;;;24.00;43.91;99625.59;5140405;28;20187;-59
2023/05/28 06:48:06;;;;;;;2.97;1.13;;;;;;;24.34;43.88;99624.94;5140295;28;20055;-52
2023/05/28 06:50:32;;;;;;;1.95;1.08;;;;;;;24.93;42.94;99628.31;5140497;28;20051;-54
2023/05/28 06:52:58;;;;;;;1.58;1.13;;;;;;;23.61;43.42;99628.25;5140218;28;20126;-56
2023/05/28 06:55:24;;;;;;;3.60;1.20;;;;;;;24.31;43.13;99615.41;5140634;28;20404;-56
2023/05/28 06:57:50;;;;;;;3.53;1.30;;;;;;;25.10;42.82;99618.50;5140101;27;20046;-52
2023/05/28 07:00:17;;;;;;;6.18;1.27;;;;;;;23.73;43.82;99604.38;5140296;28;20048;-50
2023/05/28 07:02:43;;;;;;;1.35;1.20;;;;;;;23.33;43.62;99615.06;5140158;28;20051;-50
2023/05/28 07:05:09;;;;;;;4.20;1.30;;;;;;;23.87;44.10;99614.38;5139943;27;20047;-54
2023/05/28 07:07:36;;;;;;;1.88;1.33;;;;;;;23.38;42.97;99608.91;5140029;28;20059;-56
2023/05/28 07:10:02;;;;;;;4.35;1.15;;;;;;;22.07;44.36;99601.28;5139926;28;20432;-55
2023/05/28 07:12:29;;;;;;;3.58;1.30;;;;;;;23.34;44.63;99594.25;5139851;28;20439;-56
2023/05/28 07:14:55;;;;;;;2.88;1.10;;;;;;;23.28;44.48;99602.38;5140156;28;20059;-58
2023/05/28 07:17:21;;;;;;;2.85;1.20;;;;;;;24.18;43.17;99592.22;5139810;28;20440;-52
2023/05/28 07:19:47;;;;;;;3.25;1.10;;;;;;;23.08;43.58;99593.34;5140023;27;20141;-55
2023/05/28 07:22:13;;;;;;;3.97;1.30;;;;;;;24.82;42.47;99590.16;5140061;28;20051;-57
2023/05/28 07:24:39;;;;;;;4.03;1.40;;;;;;;24.09;43.46;99583.69;5139732;28;20057;-59
2023/05/28 07:27:06;;;;;;;3.80;1.00;;;;;;;24.35;43.68;99585.25;5139311;27;20054;-55
2023/05/28 07:29:32;;;;;;;3.45;1.40;;;;;;;24.42;42.85;99584.28;5139492;28;20074;-53
2023/05/28 07:31:57;;;;;;;3.30;1.30;;;;;;;25.41;42.68;99576.53;5139611;28;20069;-56
2023/05/28 07:34:23;;;;;;;7.95;1.58;;;;;;;25.40;42.45;99580.59;5139656;28;20123;-57
2023/05/28 07:36:49;;;;;;;3.28;1.00;;;;;;;25.67;42.22;99584.84;5139952;27;20138;-58
2023/05/28 07:39:16;;;;;;;7.07;1.40;;;;;;;25.08;42.14;99588.06;5139395;28;20061;-61
2023/05/28 07:41:42;;;;;;;1.85;1.20;;;;;;;24.49;42.65;99577.66;5139454;28;20147;-59
2023/05/28 07:44:07;;;;;;;2.40;1.30;;;;;;;24.40;42.18;99579.13;5139693;28;20090;-59
2023/05/28 07:46:34;;;;;;;6.78;1.30;;;;;;;25.12;41.82;99579.56;5139343;28;20079;-59
2023/05/28 07:49:00;;;;;;;4.85;1.20;;;;;;;25.43;41.91;99570.47;5139572;28;20385;-53
2023/05/28 07:51:26;;;;;;;2.13;1.20;;;;;;;25.22;42.33;99572.78;5139289;28;20055;-54
2023/05/28 07:53:53;;;;;;;3.10;1.30;;;;;;;23.88;42.23;99573.94;5139630;28;20066;-59
2023/05/28 07:56:21;;;;;;;3.55;1.38;;;;;;;24.94;42.18;99559.75;5139274;28;20047;-56
2023/05/28 07:58:47;;;;;;;8.68;1.42;;;;;;;24.13;42.32;99556.38;5139180;28;20388;-58
2023/05/28 08:01:13;;;;;;;8.15;1.40;;;;;;;25.19;41.84;99562.50;5139242;28;20055;-59
2023/05/28 08:03:39;;;;;;;3.97;1.05;;;;;;;24.83;41.57;99555.31;5139136;28;20424;-55
2023/05/28 08:06:06;;;;;;;3.17;1.20;;;;;;;24.39;42.36;99552.34;5139090;27;20332;-53
2023/05/28 08:08:32;;;;;;;2.38;1.25;;;;;;;23.94;42.40;99558.16;5139093;28;20379;-53
2023/05/28 08:10:58;;;;;;;2.65;1.15;;;;;;;23.73;42.91;99553.97;5138998;28;20051;-56
2023/05/28 08:13:25;;;;;;;3.35;1.27;;;;;;;24.04;42.18;99545.06;5139120;28;20043;-58
2023/05/28 08:15:51;;;;;;;2.83;1.27;;;;;;;24.29;41.84;99553.47;5138965;28;20091;-60
2023/05/28 08:18:17;;;;;;;6.10;1.60;;;;;;;24.24;41.96;99553.22;5139009;28;20059;-58
2023/05/28 08:20:43;;;;;;;2.85;1.00;;;;;;;24.43;41.44;99549.44;5139038;28;20061;-50
2023/05/28 08:23:08;;;;;;;3.53;1.40;;;;;;;25.15;41.19;99549.81;5138942;28;20051;-53
2023/05/28 08:25:34;;;;;;;3.25;1.33;;;;;;;24.83;41.83;99546.88;5138886;28;20154;-56
2023/05/28 08:28:00;;;;;;;4.10;1.40;;;;;;;23.37;41.95;99545.81;5138746;27;20061;-57
2023/05/28 08:30:27;;;;;;;2.38;1.48;;;;;;;24.27;41.13;99539.09;5138946;28;20057;-59
2023/05/28 08:32:53;;;;;;;1.55;1.20;;;;;;;23.58;42.34;99536.78;5138670;28;20051;-60
2023/05/28 08:35:19;;;;;;;1.23;1.10;;;;;;;23.25;42.11;99544.53;5138593;27;20420;-59
2023/05/28 08:37:45;;;;;;;4.00;1.10;;;;;;;23.37;42.63;99535.41;5138438;28;20146;-57
2023/05/28 08:40:13;;;;;;;3.92;1.27;;;;;;;24.06;41.63;99534.16;5137474;27;20400;-55
2023/05/28 08:42:39;;;;;;;3.40;1.17;;;;;;;24.78;41.63;99535.44;5138700;28;20329;-55
2023/05/28 08:45:06;;;;;;;1.85;1.20;;;;;;;24.23;41.29;99532.06;5138392;28;20086;-52
2023/05/28 08:47:34;;;;;;;2.03;1.08;;;;;;;25.15;40.80;99530.19;5138477;28;20374;-50
2023/05/28 08:50:06;;;;;;;1.70;1.25;;;;;;;26.07;40.30;99528.75;5138552;28;20047;-52
2023/05/28 08:52:33;;;;;;;2.00;1.20;;;;;;;26.25;40.58;99528.00;5138339;28;20488;-55
2023/05/28 08:55:00;;;;;;;4.28;1.23;;;;;;;26.96;40.30;99524.28;5138284;28;20047;-54
2023/05/28 08:57:28;;;;;;;1.83;1.10;;;;;;;26.80;40.24;99528.16;5138307;28;20142;-59
2023/05/28 08:59:54;;;;;;;4.47;1.17;;;;;;;26.66;39.94;99521.13;5138271;28;20057;-50
2023/05/28 09:02:25;;;;;;;3.55;1.42;;;;;;;26.18;40.10;99523.47;5138102;28;20099;-53
2023/05/28 09:04:53;;;;;;;5.60;1.38;;;;;;;24.53;41.52;99511.88;5137696;28;20138;-54
2023/05/28 09:07:19;;;;;;;5.95;1.08;;;;;;;25.07;41.66;99505.16;5137923;27;20051;-54
2023/05/28 09:09:45;;;;;;;4.05;1.30;;;;;;;24.48;41.86;99497.63;5137999;28;20043;-58
2023/05/28 09:12:11;;;;;;;8.70;1.40;;;;;;;24.48;42.27;99509.63;5138220;28;20051;-53
2023/05/28 09:14:39;;;;;;;3.33;1.50;;;;;;;24.81;42.40;99501.69;5138075;28;20095;-55
2023/05/28 09:17:05;;;;;;;2.88;1.08;;;;;;;25.29;41.21;99507.22;5138048;28;20112;-58
2023/05/28 09:19:31;;;;;;;3.00;1.30;;;;;;;23.62;42.52;99503.09;5137881;28;20417;-54
2023/05/28 09:21:59;;;;;;;1.50;1.40;;;;;;;25.55;41.67;99499.44;5137885;28;20336;-51
2023/05/28 09:24:25;;;;;;;3.22;1.23;;;;;;;25.46;41.00;99499.38;5137973;28;20058;-53
2023/05/28 09:26:55;;;;;;;5.10;1.17;;;;;;;25.32;41.55;99500.69;5137795;28;20408;-54
2023/05/28 09:29:23;;;;;;;5.50;1.20;;;;;;;26.31;41.01;99500.09;5137697;28;20472;-50
2023/05/28 09:31:55;;;;;;;4.72;1.30;;;;;;;26.10;40.88;99494.09;5137713;28;20124;-57
2023/05/28 09:34:21;;;;;;;2.78;1.20;;;;;;;26.11;41.75;99489.25;5138123;28;20065;-50
2023/05/28 09:36:51;;;;;;;4.43;1.40;;;;;;;25.99;41.49;99480.50;5137959;27;20066;-52
2023/05/28 09:39:17;;;;;;;6.18;1.30;;;;;;;26.09;41.04;99480.50;5137913;28;20381;-57
2023/05/28 09:41:46;;;;;;;1.75;1.23;;;;;;;25.98;41.14;99475.31;5137550;28;20043;-57
2023/05/28 09:44:12;;;;;;;6.00;1.48;;;;;;;25.51;41.52;99479.13;5137648;28;20103;-53
2023/05/28 09:46:38;;;;;;;2.13;1.40;;;;;;;23.62;42.14;99461.88;5137616;28;20120;-57
2023/05/28 09:49:04;;;;;;;2.10;1.30;;;;;;;25.56;41.90;99472.94;5137826;28;20409;-58
2023/05/28 09:51:32;;;;;;;2.45;1.10;;;;;;;25.19;42.42;99464.31;5137241;27;20089;-53
2023/05/28 09:54:00;;;;;;;5.38;1.40;;;;;;;24.47;41.83;99465.25;5137474;28;20043;-50
2023/05/28 09:56:29;;;;;;;2.35;1.17;;;;;;;22.98;43.31;99452.59;5137297;28;20055;-58
2023/05/28 09:58:58;;;;;;;6.32;1.50;;;;;;;24.31;42.15;99458.53;5137211;28;20054;-50
2023/05/28 10:01:27;;;;;;;2.80;1.30;;;;;;;24.62;42.50;99460.69;5137264;28;20465;-55
2023/05/28 10:04:01;;;;;;;4.43;1.30;;;;;;;24.25;42.68;99456.75;5137488;28;20059;-51
2023/05/28 10:06:27;;;;;;;3.95;1.60;;;;;;;24.89;42.67;99454.53;5137098;27;20054;-58
2023/05/28 10:08:55;;;;;;;2.05;1.30;;;;;;;23.97;42.89;99447.28;5137147;28;20149;-55
2023/05/28 10:11:23;;;;;;;2.78;1.20;;;;;;;23.00;42.97;99442.53;5137057;28;20043;-60
2023/05/28 10:13:50;;;;;;;5.05;1.65;;;;;;;23.94;42.72;99441.31;5137139;28;20346;-54
2023/05/28 10:16:18;;;;;;;5.30;1.35;;;;;;;24.13;42.65;99433.91;5136978;28;20048;-50
2023/05/28 10:18:44;;;;;;;2.55;1.25;;;;;;;24.78;42.32;99429.69;5136865;28;20099;-60
2023/05/28 10:21:12;;;;;;;2.28;1.48;;;;;;;25.09;42.15;99443.00;5136778;28;20133;-55
2023/05/28 10:23:40;;;;;;;5.82;1.60;;;;;;;25.08;42.17;99433.81;5136753;28;20047;-59
2023/05/28 10:26:07;;;;;;;8.40;1.80;;;;;;;25.15;42.73;99437.63;5136718;28;20138;-59
2023/05/28 10:28:33;;;;;;;4.13;1.45;;;;;;;25.05;42.53;99431.13;5136848;27;20137;-58
2023/05/28 10:31:04;;;;;;;4.70;1.38;;;;;;;25.54;42.04;99428.47;5137022;28;20047;-53
2023/05/28 10:33:31;;;;;;;5.50;1.65;;;;;;;25.01;41.58;99427.69;5136721;28;20146;-59
2023/05/28 10:36:00;;;;;;;4.15;1.25;;;;;;;24.85;42.15;99432.22;5136761;27;20134;-57
2023/05/28 10:38:27;;;;;;;2.80;1.30;;;;;;;24.41;43.05;99432.19;5136702;28;20313;-56
2023/05/28 10:41:00;;;;;;;4.10;1.33;;;;;;;24.79;42.18;99428.47;5136726;28;20526;-53
2023/05/28 10:43:44;;;;;;;6.78;1.40;;;;;;;24.12;42.37;99431.56;5136691;28;20051;-54
2023/05/28 10:46:14;;;;;;;3.78;1.38;;;;;;;23.73;43.03;99427.25;5136736;28;20082;-53
2023/05/28 10:48:41;;;;;;;6.68;1.60;;;;;;;23.87;42.74;99432.38;5136713;28;20051;-55
2023/05/28 10:51:07;;;;;;;2.88;1.40;;;;;;;23.64;43.04;99425.06;5136914;28;20058;-55
2023/05/28 10:53:33;;;;;;;6.45;1.50;;;;;;;22.82;43.89;99422.66;5136729;28;20047;-58
2023/05/28 10:56:01;;;;;;;3.28;1.50;;;;;;;22.82;43.37;99417.06;5136825;28;20054;-52
2023/05/28 10:58:29;;;;;;;6.65;1.30;;;;;;;21.56;44.99;99408.28;5136580;28;20328;-54
2023/05/28 11:01:01;;;;;;;3.63;1.20;;;;;;;20.59;45.81;99405.88;5136674;28;20046;-60
2023/05/28 11:03:41;;;;;;;5.03;1.45;;;;;;;20.82;45.81;99400.25;5138466;27;20051;-56
2023/05/28 11:06:08;;;;;;;1.27;1.00;;;;;;;21.50;45.72;99401.66;5140005;27;20046;-52
2023/05/28 11:08:39;;;;;;;4.68;1.50;;;;;;;21.64;45.71;99399.75;5140067;28;20188;-57
2023/05/28 11:11:06;;;;;;;2.60;0.77;;;;;;;21.24;45.97;99395.00;5140276;28;20055;-53
2023/05/28 11:13:33;;;;;;;4.47;1.00;;;;;;;21.55;45.87;99395.53;5140226;28;20436;-58
2023/05/28 11:16:06;;;;;;;9.57;0.98;;;;;;;21.57;45.26;99395.13;5140109;28;20046;-54
2023/05/28 11:18:32;;;;;;;0.85;0.82;;;;;;;21.57;45.73;99387.53;5139965;28;20051;-60
2023/05/28 11:21:03;;;;;;;3.13;0.73;;;;;;;21.50;45.58;99384.91;5139822;28;20051;-59
2023/05/28 11:23:29;;;;;;;9.20;1.10;;;;;;;20.99;47.05;99387.16;5139889;28;20054;-52
2023/05/28 11:25:55;;;;;;;5.50;1.10;;;;;;;20.71;46.93;99379.41;5140071;28;20078;-50
2023/05/28 11:28:21;;;;;;;2.55;1.02;;;;;;;20.16;46.84;99376.81;5139720;28;20516;-51
2023/05/28 11:30:51;;;;;;;1.17;1.00;;;;;;;19.85;46.83;99380.94;5139666;28;20058;-55